createdAt,value
2024-03-14T05:05:58.494Z,12.55
2024-03-14T05:11:04.500Z,12.50
2024-03-14T05:16:13.316Z,12.48
2024-03-14T05:21:18.597Z,12.49
2024-03-14T05:26:24.228Z,12.48
2024-03-14T05:31:29.406Z,12.48
2024-03-14T05:36:35.694Z,12.47
2024-03-14T05:41:41.321Z,12.47
2024-03-14T05:46:48.374Z,12.46
2024-03-14T05:51:53.782Z,12.47
2024-03-14T05:56:59.300Z,12.46
2024-03-14T06:02:04.728Z,12.47
2024-03-14T06:07:10.673Z,12.46
2024-03-14T06:12:16.087Z,12.46
2024-03-14T06:17:21.380Z,12.46
2024-03-14T06:22:26.665Z,12.45
2024-03-14T06:27:32.658Z,12.46
2024-03-14T06:32:38.303Z,12.46
2024-03-14T06:37:43.917Z,12.46
2024-03-14T06:42:50.770Z,12.46
2024-03-14T06:47:56.706Z,12.46
2024-03-14T06:53:02.256Z,12.45
2024-03-14T06:58:07.734Z,12.45
2024-03-14T07:03:13.119Z,12.46
2024-03-14T07:08:18.456Z,12.45
2024-03-14T07:13:23.713Z,12.45
2024-03-14T07:18:29.519Z,12.47
2024-03-14T07:23:35.038Z,12.46
2024-03-14T07:28:41.023Z,12.46
2024-03-14T07:33:46.936Z,12.45
2024-03-14T07:38:52.153Z,12.46
2024-03-14T07:44:10.406Z,12.45
2024-03-14T07:49:23.746Z,12.48
2024-03-14T07:54:30.085Z,12.47
2024-03-14T07:59:35.983Z,12.46
2024-03-14T08:04:43.162Z,12.47
2024-03-14T08:09:49.523Z,12.48
2024-03-14T08:15:00.392Z,12.47
2024-03-14T08:20:09.226Z,12.48
2024-03-14T08:25:18.412Z,12.47
2024-03-14T08:30:25.012Z,12.47
2024-03-14T08:35:30.286Z,12.48
2024-03-14T08:40:36.984Z,12.47
2024-03-14T08:45:42.518Z,12.47
2024-03-14T08:50:48.262Z,12.46
2024-03-14T08:55:56.561Z,12.46
2024-03-14T09:01:05.023Z,12.46
2024-03-14T09:06:10.443Z,12.46
2024-03-14T09:11:20.988Z,12.45
2024-03-14T09:16:27.981Z,12.45
2024-03-14T09:21:33.773Z,12.45
2024-03-14T09:26:40.315Z,12.51
2024-03-14T09:31:46.743Z,12.54
2024-03-14T09:36:54.645Z,12.56
2024-03-14T09:42:00.491Z,12.55
2024-03-14T09:47:08.184Z,12.60
2024-03-14T09:52:13.943Z,12.66
2024-03-14T09:57:20.901Z,12.69
2024-03-14T10:02:26.630Z,12.72
2024-03-14T10:07:32.018Z,12.76
2024-03-14T10:12:38.474Z,12.79
2024-03-14T10:17:44.751Z,12.79
2024-03-14T10:22:51.097Z,12.81
2024-03-14T10:28:06.497Z,12.82
2024-03-14T10:33:18.045Z,12.86
2024-03-14T10:38:27.033Z,12.85
2024-03-14T10:43:32.228Z,12.84
2024-03-14T10:48:40.002Z,12.84
2024-03-14T10:53:45.827Z,12.86
2024-03-14T10:58:51.299Z,12.84
2024-03-14T11:03:56.635Z,12.84
2024-03-14T11:09:05.050Z,12.83
2024-03-14T11:14:13.522Z,12.82
2024-03-14T11:19:19.074Z,12.81
2024-03-14T11:24:26.999Z,12.80
2024-03-14T11:29:32.183Z,12.80
2024-03-14T11:34:37.913Z,12.78
2024-03-14T11:39:48.069Z,12.77
2024-03-14T11:44:53.606Z,12.77
2024-03-14T11:49:59.154Z,12.74
2024-03-14T11:55:07.151Z,12.74
2024-03-14T12:00:12.711Z,12.76
2024-03-14T12:05:24.994Z,12.76
2024-03-14T12:10:30.284Z,12.73
2024-03-14T12:15:38.115Z,12.72
2024-03-14T12:20:49.244Z,12.70
2024-03-14T12:25:56.533Z,12.68
2024-03-14T12:31:03.042Z,12.67
2024-03-14T12:36:10.649Z,12.66
2024-03-14T12:41:15.981Z,12.65
2024-03-14T12:46:24.564Z,12.64
2024-03-14T12:51:30.817Z,12.63
2024-03-14T12:56:36.117Z,12.63
2024-03-14T13:01:41.497Z,12.61
2024-03-14T13:06:47.629Z,12.60
2024-03-14T13:12:05.683Z,12.59
2024-03-14T13:17:13.095Z,12.57
2024-03-14T13:22:20.125Z,12.58
2024-03-14T13:27:25.813Z,12.58
2024-03-14T13:32:31.195Z,12.57
2024-03-14T13:37:36.687Z,12.57
2024-03-14T13:42:42.086Z,12.57
2024-03-14T13:47:47.991Z,12.56
2024-03-14T13:52:53.265Z,12.56
2024-03-14T13:57:59.110Z,12.57
2024-03-14T14:03:05.417Z,12.57
2024-03-14T14:08:12.034Z,12.55
2024-03-14T14:13:17.768Z,12.55
2024-03-14T14:18:23.559Z,12.55
2024-03-14T14:23:29.894Z,12.55
2024-03-14T14:28:35.578Z,12.55
2024-03-14T14:33:42.225Z,12.55
2024-03-14T14:38:47.744Z,12.53
2024-03-14T14:43:54.537Z,12.54
2024-03-14T14:48:59.991Z,12.54
2024-03-14T14:54:06.591Z,12.53
2024-03-14T14:59:12.236Z,12.55
2024-03-14T15:04:18.311Z,12.54
2024-03-14T15:09:25.080Z,12.53
2024-03-14T15:14:30.644Z,12.52
2024-03-14T15:19:39.203Z,12.52
2024-03-14T15:24:45.436Z,12.52
2024-03-14T15:29:55.333Z,12.52
2024-03-14T15:35:01.504Z,12.51
2024-03-14T15:40:09.555Z,12.52
2024-03-14T15:45:18.962Z,12.51
2024-03-14T15:50:25.988Z,12.53
2024-03-14T15:55:33.699Z,12.51
2024-03-14T16:00:39.770Z,12.51
2024-03-14T16:05:46.047Z,12.51
2024-03-14T16:10:51.585Z,12.51
2024-03-14T16:15:57.317Z,12.50
2024-03-14T16:21:02.928Z,12.50
2024-03-14T16:26:09.129Z,12.50
2024-03-14T16:31:14.786Z,12.48
2024-03-14T16:36:21.808Z,12.50
2024-03-14T16:41:29.159Z,12.49
2024-03-14T16:46:40.096Z,12.49
2024-03-14T16:51:45.613Z,12.49
2024-03-14T16:56:51.215Z,12.47
2024-03-14T17:01:56.734Z,12.47
2024-03-14T17:07:02.435Z,12.47
2024-03-14T17:12:08.403Z,12.48
2024-03-14T17:17:13.773Z,12.47
2024-03-14T17:22:19.484Z,12.46
2024-03-14T17:27:25.437Z,12.47
2024-03-14T17:32:30.991Z,12.46
2024-03-14T17:37:36.514Z,12.45
2024-03-14T17:42:44.348Z,12.45
2024-03-14T17:47:50.770Z,12.45
2024-03-14T17:52:56.407Z,12.46
2024-03-14T17:58:01.855Z,12.43
2024-03-14T18:03:10.006Z,12.44
2024-03-14T18:08:15.835Z,12.46
2024-03-14T18:13:22.328Z,12.45
2024-03-14T18:18:27.937Z,12.44
2024-03-14T18:23:33.350Z,12.44
2024-03-14T18:28:38.937Z,12.44
2024-03-14T18:33:44.530Z,12.43
2024-03-14T18:38:50.138Z,12.43
2024-03-14T18:43:56.618Z,12.42
2024-03-14T18:49:11.623Z,12.43
2024-03-14T18:54:21.111Z,12.44
2024-03-14T18:59:26.507Z,12.43
2024-03-14T19:04:33.538Z,12.43
2024-03-14T19:09:40.436Z,12.42
2024-03-14T19:14:46.940Z,12.41
2024-03-14T19:19:52.782Z,12.41
2024-03-14T19:24:58.253Z,12.41
2024-03-14T19:30:06.904Z,12.41
2024-03-14T19:35:14.494Z,12.41
2024-03-14T19:40:19.941Z,12.41
2024-03-14T19:45:25.491Z,12.40
2024-03-14T19:50:30.936Z,12.41
2024-03-14T19:55:37.132Z,12.40
2024-03-14T20:00:42.847Z,12.40
2024-03-14T20:05:48.350Z,12.39
2024-03-14T20:10:53.735Z,12.38
2024-03-14T20:15:59.678Z,12.39
2024-03-14T20:21:05.179Z,12.38
2024-03-14T20:26:13.110Z,12.38
2024-03-14T20:31:18.927Z,12.37
2024-03-14T20:36:24.876Z,12.38
2024-03-14T20:41:30.570Z,12.37
2024-03-14T20:46:37.234Z,12.37
2024-03-14T20:51:42.852Z,12.37
2024-03-14T20:56:49.469Z,12.37
2024-03-14T21:01:56.426Z,12.37
2024-03-14T21:07:01.905Z,12.38
2024-03-14T21:12:10.738Z,12.37
2024-03-14T21:17:16.149Z,12.36
2024-03-14T21:22:21.738Z,12.36
2024-03-14T21:27:27.114Z,12.35
2024-03-14T21:32:32.798Z,12.34
2024-03-14T21:37:38.548Z,12.34
2024-03-14T21:42:44.283Z,12.35
2024-03-14T21:47:50.163Z,12.33
2024-03-14T21:52:56.329Z,12.33
2024-03-14T21:58:02.690Z,12.33
2024-03-14T22:03:08.392Z,12.33
2024-03-14T22:08:15.571Z,12.34
2024-03-14T22:13:20.959Z,12.32
2024-03-14T22:18:26.802Z,12.31
2024-03-14T22:23:32.473Z,12.31
2024-03-14T22:28:38.339Z,12.31
2024-03-14T22:33:44.323Z,12.31
2024-03-14T22:38:50.067Z,12.30
2024-03-14T22:43:56.148Z,12.31
2024-03-14T22:49:02.202Z,12.31
2024-03-14T22:54:07.870Z,12.30
2024-03-14T22:59:13.854Z,12.29
2024-03-14T23:04:20.049Z,12.28
2024-03-14T23:09:25.500Z,12.26
2024-03-14T23:14:31.164Z,12.28
2024-03-14T23:19:38.936Z,12.26
2024-03-14T23:24:44.369Z,12.27
2024-03-14T23:29:53.675Z,12.24
2024-03-14T23:35:00.117Z,12.24
2024-03-14T23:40:05.778Z,12.23
2024-03-14T23:45:11.427Z,12.24
2024-03-14T23:50:21.154Z,12.24
2024-03-14T23:55:26.642Z,12.24
